sensor_id;sensor_type;location;lat;lon;timestamp;P1;durP1;ratioP1;P2;durP2;ratioP2
48667;SDS011;34453;52.198;5.004;2022-09-03T00:01:47;3.85;;;0.93;;
48667;SDS011;34453;52.198;5.004;2022-09-03T00:04:34;2.15;;;1.13;;
48667;SDS011;34453;52.198;5.004;2022-09-03T00:07:11;4.28;;;1.10;;
48667;SDS011;34453;52.198;5.004;2022-09-03T00:09:45;3.10;;;0.80;;
48667;SDS011;34453;52.198;5.004;2022-09-03T00:12:16;2.63;;;1.73;;
48667;SDS011;34453;52.198;5.004;2022-09-03T00:17:15;1.40;;;1.02;;
48667;SDS011;34453;52.198;5.004;2022-09-03T00:19:46;1.60;;;1.50;;
48667;SDS011;34453;52.198;5.004;2022-09-03T00:22:18;3.95;;;1.17;;
48667;SDS011;34453;52.198;5.004;2022-09-03T00:24:48;3.63;;;1.35;;
48667;SDS011;34453;52.198;5.004;2022-09-03T00:27:17;1.05;;;1.05;;
48667;SDS011;34453;52.198;5.004;2022-09-03T00:30:05;2.25;;;1.15;;
48667;SDS011;34453;52.198;5.004;2022-09-03T00:37:59;9.27;;;1.55;;
48667;SDS011;34453;52.198;5.004;2022-09-03T00:40:35;2.95;;;2.03;;
48667;SDS011;34453;52.198;5.004;2022-09-03T00:46:04;1.80;;;1.70;;
48667;SDS011;34453;52.198;5.004;2022-09-03T00:49:29;1.00;;;0.85;;
48667;SDS011;34453;52.198;5.004;2022-09-03T00:55:02;3.78;;;1.13;;
48667;SDS011;34453;52.198;5.004;2022-09-03T00:58:01;1.65;;;1.15;;
48667;SDS011;34453;52.198;5.004;2022-09-03T01:00:49;5.00;;;1.60;;
48667;SDS011;34453;52.198;5.004;2022-09-03T01:09:16;1.48;;;0.98;;
48667;SDS011;34453;52.198;5.004;2022-09-03T01:15:03;5.63;;;1.23;;
48667;SDS011;34453;52.198;5.004;2022-09-03T01:17:48;1.23;;;1.23;;
48667;SDS011;34453;52.198;5.004;2022-09-03T01:28:26;1.77;;;1.10;;
48667;SDS011;34453;52.198;5.004;2022-09-03T01:33:44;1.23;;;1.05;;
48667;SDS011;34453;52.198;5.004;2022-09-03T01:39:05;1.10;;;0.98;;
48667;SDS011;34453;52.198;5.004;2022-09-03T01:44:42;1.30;;;1.25;;
48667;SDS011;34453;52.198;5.004;2022-09-03T01:47:21;1.15;;;1.15;;
48667;SDS011;34453;52.198;5.004;2022-09-03T01:50:19;1.45;;;1.35;;
48667;SDS011;34453;52.198;5.004;2022-09-03T02:01:26;1.58;;;1.08;;
48667;SDS011;34453;52.198;5.004;2022-09-03T02:04:20;4.88;;;1.40;;
48667;SDS011;34453;52.198;5.004;2022-09-03T02:06:52;1.40;;;1.17;;
48667;SDS011;34453;52.198;5.004;2022-09-03T02:09:21;1.73;;;1.45;;
48667;SDS011;34453;52.198;5.004;2022-09-03T02:12:30;2.47;;;1.25;;
48667;SDS011;34453;52.198;5.004;2022-09-03T02:17:05;1.63;;;1.08;;
48667;SDS011;34453;52.198;5.004;2022-09-03T02:19:32;6.78;;;1.17;;
48667;SDS011;34453;52.198;5.004;2022-09-03T02:22:01;4.45;;;1.30;;
48667;SDS011;34453;52.198;5.004;2022-09-03T02:24:27;2.63;;;1.30;;
48667;SDS011;34453;52.198;5.004;2022-09-03T02:26:53;2.10;;;1.58;;
48667;SDS011;34453;52.198;5.004;2022-09-03T02:29:19;2.10;;;1.10;;
48667;SDS011;34453;52.198;5.004;2022-09-03T02:31:45;3.78;;;1.65;;
48667;SDS011;34453;52.198;5.004;2022-09-03T02:34:11;2.50;;;1.17;;
48667;SDS011;34453;52.198;5.004;2022-09-03T02:36:37;1.77;;;1.02;;
48667;SDS011;34453;52.198;5.004;2022-09-03T02:39:05;3.28;;;0.95;;
48667;SDS011;34453;52.198;5.004;2022-09-03T02:41:31;1.85;;;1.20;;
48667;SDS011;34453;52.198;5.004;2022-09-03T02:44:01;1.25;;;1.20;;
48667;SDS011;34453;52.198;5.004;2022-09-03T02:46:50;6.45;;;1.92;;
48667;SDS011;34453;52.198;5.004;2022-09-03T02:49:32;2.25;;;1.23;;
48667;SDS011;34453;52.198;5.004;2022-09-03T02:51:58;1.52;;;1.40;;
48667;SDS011;34453;52.198;5.004;2022-09-03T02:54:25;1.00;;;0.93;;
48667;SDS011;34453;52.198;5.004;2022-09-03T02:56:53;8.25;;;1.30;;
48667;SDS011;34453;52.198;5.004;2022-09-03T02:59:18;2.85;;;1.10;;
48667;SDS011;34453;52.198;5.004;2022-09-03T03:01:46;4.03;;;1.25;;
48667;SDS011;34453;52.198;5.004;2022-09-03T03:04:12;1.08;;;1.00;;
48667;SDS011;34453;52.198;5.004;2022-09-03T03:06:37;1.60;;;1.13;;
48667;SDS011;34453;52.198;5.004;2022-09-03T03:09:03;1.20;;;1.10;;
48667;SDS011;34453;52.198;5.004;2022-09-03T03:11:29;5.97;;;1.10;;
48667;SDS011;34453;52.198;5.004;2022-09-03T03:13:55;4.28;;;1.55;;
48667;SDS011;34453;52.198;5.004;2022-09-03T03:16:21;1.50;;;1.30;;
48667;SDS011;34453;52.198;5.004;2022-09-03T03:18:46;3.13;;;1.00;;
48667;SDS011;34453;52.198;5.004;2022-09-03T03:21:13;1.30;;;1.20;;
48667;SDS011;34453;52.198;5.004;2022-09-03T03:23:40;1.17;;;1.17;;
48667;SDS011;34453;52.198;5.004;2022-09-03T03:26:07;1.35;;;1.00;;
48667;SDS011;34453;52.198;5.004;2022-09-03T03:28:34;2.25;;;1.40;;
48667;SDS011;34453;52.198;5.004;2022-09-03T03:31:06;13.85;;;1.77;;
48667;SDS011;34453;52.198;5.004;2022-09-03T03:33:55;3.95;;;1.20;;
48667;SDS011;34453;52.198;5.004;2022-09-03T03:36:23;2.33;;;1.67;;
48667;SDS011;34453;52.198;5.004;2022-09-03T03:38:52;3.47;;;1.25;;
48667;SDS011;34453;52.198;5.004;2022-09-03T03:41:23;1.60;;;1.50;;
48667;SDS011;34453;52.198;5.004;2022-09-03T03:43:53;5.60;;;1.55;;
48667;SDS011;34453;52.198;5.004;2022-09-03T03:46:20;6.35;;;1.10;;
48667;SDS011;34453;52.198;5.004;2022-09-03T03:48:47;1.30;;;1.17;;
48667;SDS011;34453;52.198;5.004;2022-09-03T03:51:13;1.40;;;1.30;;
48667;SDS011;34453;52.198;5.004;2022-09-03T03:53:39;1.48;;;1.02;;
48667;SDS011;34453;52.198;5.004;2022-09-03T03:56:05;4.57;;;1.13;;
48667;SDS011;34453;52.198;5.004;2022-09-03T03:58:33;2.13;;;1.25;;
48667;SDS011;34453;52.198;5.004;2022-09-03T04:01:06;4.38;;;1.20;;
48667;SDS011;34453;52.198;5.004;2022-09-03T04:03:38;1.55;;;1.38;;
48667;SDS011;34453;52.198;5.004;2022-09-03T04:06:04;1.48;;;1.30;;
48667;SDS011;34453;52.198;5.004;2022-09-03T04:08:32;4.70;;;1.27;;
48667;SDS011;34453;52.198;5.004;2022-09-03T04:10:59;1.15;;;1.02;;
48667;SDS011;34453;52.198;5.004;2022-09-03T04:13:29;1.23;;;1.10;;
48667;SDS011;34453;52.198;5.004;2022-09-03T04:16:09;1.35;;;1.25;;
48667;SDS011;34453;52.198;5.004;2022-09-03T04:18:36;7.72;;;1.73;;
48667;SDS011;34453;52.198;5.004;2022-09-03T04:21:07;1.83;;;1.40;;
48667;SDS011;34453;52.198;5.004;2022-09-03T04:23:37;5.15;;;1.42;;
48667;SDS011;34453;52.198;5.004;2022-09-03T04:26:04;6.35;;;1.80;;
48667;SDS011;34453;52.198;5.004;2022-09-03T04:28:30;4.28;;;1.90;;
48667;SDS011;34453;52.198;5.004;2022-09-03T04:30:59;3.53;;;1.40;;
48667;SDS011;34453;52.198;5.004;2022-09-03T04:33:26;2.25;;;1.05;;
48667;SDS011;34453;52.198;5.004;2022-09-03T04:35:51;1.38;;;1.13;;
48667;SDS011;34453;52.198;5.004;2022-09-03T04:38:17;3.85;;;1.88;;
48667;SDS011;34453;52.198;5.004;2022-09-03T04:40:42;2.35;;;1.20;;
48667;SDS011;34453;52.198;5.004;2022-09-03T04:43:08;2.00;;;0.98;;
48667;SDS011;34453;52.198;5.004;2022-09-03T04:45:33;3.30;;;1.20;;
48667;SDS011;34453;52.198;5.004;2022-09-03T04:47:59;1.98;;;1.35;;
48667;SDS011;34453;52.198;5.004;2022-09-03T04:50:29;2.35;;;1.15;;
48667;SDS011;34453;52.198;5.004;2022-09-03T04:53:00;2.58;;;1.20;;
48667;SDS011;34453;52.198;5.004;2022-09-03T04:55:27;2.13;;;1.50;;
48667;SDS011;34453;52.198;5.004;2022-09-03T04:57:57;4.32;;;1.92;;
48667;SDS011;34453;52.198;5.004;2022-09-03T05:00:23;8.57;;;1.80;;
48667;SDS011;34453;52.198;5.004;2022-09-03T05:02:48;3.95;;;1.48;;
48667;SDS011;34453;52.198;5.004;2022-09-03T05:05:16;1.20;;;1.10;;
48667;SDS011;34453;52.198;5.004;2022-09-03T05:07:41;1.23;;;1.13;;
48667;SDS011;34453;52.198;5.004;2022-09-03T05:10:08;1.83;;;1.00;;
48667;SDS011;34453;52.198;5.004;2022-09-03T05:12:37;1.63;;;1.25;;
48667;SDS011;34453;52.198;5.004;2022-09-03T05:15:03;4.65;;;1.55;;
48667;SDS011;34453;52.198;5.004;2022-09-03T05:17:30;3.92;;;1.08;;
48667;SDS011;34453;52.198;5.004;2022-09-03T05:19:55;1.27;;;1.27;;
48667;SDS011;34453;52.198;5.004;2022-09-03T05:22:21;1.60;;;1.30;;
48667;SDS011;34453;52.198;5.004;2022-09-03T05:24:47;1.45;;;1.13;;
48667;SDS011;34453;52.198;5.004;2022-09-03T05:27:13;1.38;;;1.10;;
48667;SDS011;34453;52.198;5.004;2022-09-03T05:29:41;7.90;;;1.38;;
48667;SDS011;34453;52.198;5.004;2022-09-03T05:32:10;3.25;;;1.23;;
48667;SDS011;34453;52.198;5.004;2022-09-03T05:34:41;5.63;;;1.52;;
48667;SDS011;34453;52.198;5.004;2022-09-03T05:37:07;4.07;;;1.35;;
48667;SDS011;34453;52.198;5.004;2022-09-03T05:39:32;3.00;;;1.27;;
48667;SDS011;34453;52.198;5.004;2022-09-03T05:41:57;2.85;;;1.13;;
48667;SDS011;34453;52.198;5.004;2022-09-03T05:44:23;2.45;;;1.13;;
48667;SDS011;34453;52.198;5.004;2022-09-03T05:46:48;2.88;;;1.23;;
48667;SDS011;34453;52.198;5.004;2022-09-03T05:49:15;1.45;;;1.17;;
48667;SDS011;34453;52.198;5.004;2022-09-03T05:51:41;4.13;;;1.58;;
48667;SDS011;34453;52.198;5.004;2022-09-03T05:54:08;1.10;;;1.10;;
48667;SDS011;34453;52.198;5.004;2022-09-03T05:56:34;4.28;;;1.60;;
48667;SDS011;34453;52.198;5.004;2022-09-03T05:59:02;2.08;;;1.42;;
48667;SDS011;34453;52.198;5.004;2022-09-03T06:01:32;1.88;;;1.23;;
48667;SDS011;34453;52.198;5.004;2022-09-03T06:04:03;1.88;;;1.30;;
48667;SDS011;34453;52.198;5.004;2022-09-03T06:06:31;2.72;;;1.10;;
48667;SDS011;34453;52.198;5.004;2022-09-03T06:08:59;1.80;;;1.20;;
48667;SDS011;34453;52.198;5.004;2022-09-03T06:11:26;1.13;;;1.13;;
48667;SDS011;34453;52.198;5.004;2022-09-03T06:13:57;1.65;;;1.42;;
48667;SDS011;34453;52.198;5.004;2022-09-03T06:16:29;1.33;;;1.23;;
48667;SDS011;34453;52.198;5.004;2022-09-03T06:18:56;5.15;;;1.30;;
48667;SDS011;34453;52.198;5.004;2022-09-03T06:21:21;0.90;;;0.90;;
48667;SDS011;34453;52.198;5.004;2022-09-03T06:23:51;6.93;;;1.55;;
48667;SDS011;34453;52.198;5.004;2022-09-03T06:26:18;7.60;;;1.27;;
48667;SDS011;34453;52.198;5.004;2022-09-03T06:28:44;5.90;;;1.10;;
48667;SDS011;34453;52.198;5.004;2022-09-03T06:31:12;1.45;;;1.00;;
48667;SDS011;34453;52.198;5.004;2022-09-03T06:33:39;2.95;;;1.42;;
48667;SDS011;34453;52.198;5.004;2022-09-03T06:36:07;1.42;;;1.08;;
48667;SDS011;34453;52.198;5.004;2022-09-03T06:38:35;3.60;;;1.40;;
48667;SDS011;34453;52.198;5.004;2022-09-03T06:41:23;1.10;;;1.10;;
48667;SDS011;34453;52.198;5.004;2022-09-03T06:43:52;7.07;;;1.60;;
48667;SDS011;34453;52.198;5.004;2022-09-03T06:46:29;1.80;;;1.35;;
48667;SDS011;34453;52.198;5.004;2022-09-03T06:48:56;0.82;;;0.82;;
48667;SDS011;34453;52.198;5.004;2022-09-03T06:51:22;2.63;;;2.03;;
48667;SDS011;34453;52.198;5.004;2022-09-03T06:53:51;1.20;;;1.13;;
48667;SDS011;34453;52.198;5.004;2022-09-03T06:56:19;3.45;;;1.52;;
48667;SDS011;34453;52.198;5.004;2022-09-03T06:58:55;4.88;;;1.20;;
48667;SDS011;34453;52.198;5.004;2022-09-03T07:01:26;1.40;;;1.15;;
48667;SDS011;34453;52.198;5.004;2022-09-03T07:03:55;1.95;;;1.00;;
48667;SDS011;34453;52.198;5.004;2022-09-03T07:06:26;2.65;;;1.27;;
48667;SDS011;34453;52.198;5.004;2022-09-03T07:08:54;1.13;;;0.85;;
48667;SDS011;34453;52.198;5.004;2022-09-03T07:11:22;1.42;;;1.10;;
48667;SDS011;34453;52.198;5.004;2022-09-03T07:13:50;6.35;;;1.33;;
48667;SDS011;34453;52.198;5.004;2022-09-03T07:18:43;2.05;;;1.20;;
48667;SDS011;34453;52.198;5.004;2022-09-03T07:21:10;2.47;;;1.20;;
48667;SDS011;34453;52.198;5.004;2022-09-03T07:23:38;5.88;;;1.15;;
48667;SDS011;34453;52.198;5.004;2022-09-03T07:26:05;1.80;;;1.30;;
48667;SDS011;34453;52.198;5.004;2022-09-03T07:28:34;3.65;;;1.08;;
48667;SDS011;34453;52.198;5.004;2022-09-03T07:31:05;4.50;;;1.25;;
48667;SDS011;34453;52.198;5.004;2022-09-03T07:33:32;1.42;;;0.98;;
48667;SDS011;34453;52.198;5.004;2022-09-03T07:36:11;4.18;;;1.58;;
48667;SDS011;34453;52.198;5.004;2022-09-03T07:38:41;1.20;;;1.10;;
48667;SDS011;34453;52.198;5.004;2022-09-03T07:41:09;6.20;;;1.40;;
48667;SDS011;34453;52.198;5.004;2022-09-03T07:43:37;3.60;;;1.00;;
48667;SDS011;34453;52.198;5.004;2022-09-03T07:46:16;1.00;;;0.90;;
48667;SDS011;34453;52.198;5.004;2022-09-03T07:48:46;4.13;;;1.10;;
48667;SDS011;34453;52.198;5.004;2022-09-03T07:51:13;3.80;;;1.00;;
48667;SDS011;34453;52.198;5.004;2022-09-03T07:53:39;3.63;;;1.05;;
48667;SDS011;34453;52.198;5.004;2022-09-03T07:56:05;1.85;;;1.10;;
48667;SDS011;34453;52.198;5.004;2022-09-03T07:58:34;1.40;;;1.13;;
48667;SDS011;34453;52.198;5.004;2022-09-03T08:01:08;2.25;;;1.08;;
48667;SDS011;34453;52.198;5.004;2022-09-03T08:03:35;1.50;;;0.80;;
48667;SDS011;34453;52.198;5.004;2022-09-03T08:06:02;5.20;;;1.10;;
48667;SDS011;34453;52.198;5.004;2022-09-03T08:08:30;1.65;;;1.10;;
48667;SDS011;34453;52.198;5.004;2022-09-03T08:11:18;1.40;;;1.30;;
48667;SDS011;34453;52.198;5.004;2022-09-03T08:13:45;3.90;;;1.10;;
48667;SDS011;34453;52.198;5.004;2022-09-03T08:16:13;2.38;;;0.82;;
48667;SDS011;34453;52.198;5.004;2022-09-03T08:18:40;8.02;;;1.23;;
48667;SDS011;34453;52.198;5.004;2022-09-03T08:21:11;3.67;;;0.90;;
48667;SDS011;34453;52.198;5.004;2022-09-03T08:23:42;4.03;;;1.08;;
48667;SDS011;34453;52.198;5.004;2022-09-03T08:26:08;7.20;;;1.08;;
48667;SDS011;34453;52.198;5.004;2022-09-03T08:28:35;6.30;;;1.50;;
48667;SDS011;34453;52.198;5.004;2022-09-03T08:31:07;1.20;;;1.10;;
48667;SDS011;34453;52.198;5.004;2022-09-03T08:33:39;3.97;;;1.00;;
48667;SDS011;34453;52.198;5.004;2022-09-03T08:36:17;1.17;;;1.08;;
48667;SDS011;34453;52.198;5.004;2022-09-03T08:38:57;0.93;;;0.60;;
48667;SDS011;34453;52.198;5.004;2022-09-03T08:49:27;11.75;;;1.10;;
48667;SDS011;34453;52.198;5.004;2022-09-03T08:52:00;1.30;;;0.98;;
48667;SDS011;34453;52.198;5.004;2022-09-03T08:54:30;2.47;;;1.05;;
48667;SDS011;34453;52.198;5.004;2022-09-03T08:56:57;2.33;;;1.17;;
48667;SDS011;34453;52.198;5.004;2022-09-03T08:59:26;4.35;;;1.15;;
48667;SDS011;34453;52.198;5.004;2022-09-03T09:05:08;2.28;;;1.50;;
48667;SDS011;34453;52.198;5.004;2022-09-03T09:07:58;4.65;;;1.33;;
48667;SDS011;34453;52.198;5.004;2022-09-03T09:10:48;2.15;;;1.30;;
48667;SDS011;34453;52.198;5.004;2022-09-03T09:18:45;6.00;;;1.08;;
48667;SDS011;34453;52.198;5.004;2022-09-03T09:21:19;4.82;;;1.10;;
48667;SDS011;34453;52.198;5.004;2022-09-03T09:23:51;5.93;;;1.13;;
48667;SDS011;34453;52.198;5.004;2022-09-03T09:26:20;1.83;;;1.00;;
48667;SDS011;34453;52.198;5.004;2022-09-03T09:28:48;1.73;;;0.95;;
48667;SDS011;34453;52.198;5.004;2022-09-03T09:31:19;3.65;;;1.00;;
48667;SDS011;34453;52.198;5.004;2022-09-03T09:33:45;3.47;;;1.10;;
48667;SDS011;34453;52.198;5.004;2022-09-03T09:36:11;4.80;;;1.13;;
48667;SDS011;34453;52.198;5.004;2022-09-03T09:38:42;0.65;;;0.65;;
48667;SDS011;34453;52.198;5.004;2022-09-03T09:43:45;4.05;;;1.00;;
48667;SDS011;34453;52.198;5.004;2022-09-03T09:48:38;1.73;;;1.05;;
48667;SDS011;34453;52.198;5.004;2022-09-03T09:51:17;1.20;;;1.00;;
48667;SDS011;34453;52.198;5.004;2022-09-03T09:53:46;4.78;;;1.15;;
48667;SDS011;34453;52.198;5.004;2022-09-03T09:56:19;2.35;;;1.33;;
48667;SDS011;34453;52.198;5.004;2022-09-03T09:58:49;3.58;;;0.90;;
48667;SDS011;34453;52.198;5.004;2022-09-03T10:01:25;2.15;;;1.00;;
48667;SDS011;34453;52.198;5.004;2022-09-03T10:03:58;7.90;;;1.00;;
48667;SDS011;34453;52.198;5.004;2022-09-03T10:06:26;0.90;;;0.82;;
48667;SDS011;34453;52.198;5.004;2022-09-03T10:09:13;8.93;;;1.67;;
48667;SDS011;34453;52.198;5.004;2022-09-03T10:11:48;2.60;;;1.27;;
48667;SDS011;34453;52.198;5.004;2022-09-03T10:14:27;0.77;;;0.73;;
48667;SDS011;34453;52.198;5.004;2022-09-03T10:16:59;5.53;;;1.00;;
48667;SDS011;34453;52.198;5.004;2022-09-03T10:19:47;2.92;;;1.10;;
48667;SDS011;34453;52.198;5.004;2022-09-03T10:22:38;3.58;;;0.85;;
48667;SDS011;34453;52.198;5.004;2022-09-03T10:25:08;1.95;;;0.70;;
48667;SDS011;34453;52.198;5.004;2022-09-03T10:27:34;5.78;;;0.88;;
48667;SDS011;34453;52.198;5.004;2022-09-03T10:30:01;7.10;;;1.08;;
48667;SDS011;34453;52.198;5.004;2022-09-03T10:32:33;3.88;;;1.08;;
48667;SDS011;34453;52.198;5.004;2022-09-03T10:35:12;8.38;;;0.90;;
48667;SDS011;34453;52.198;5.004;2022-09-03T10:40:36;5.60;;;0.63;;
48667;SDS011;34453;52.198;5.004;2022-09-03T10:54:45;2.45;;;1.20;;
48667;SDS011;34453;52.198;5.004;2022-09-03T11:00:10;7.25;;;1.00;;
48667;SDS011;34453;52.198;5.004;2022-09-03T11:05:28;4.25;;;1.10;;
48667;SDS011;34453;52.198;5.004;2022-09-03T11:08:06;2.80;;;1.17;;
48667;SDS011;34453;52.198;5.004;2022-09-03T11:10:49;2.08;;;1.00;;
48667;SDS011;34453;52.198;5.004;2022-09-03T11:13:32;3.00;;;0.70;;
48667;SDS011;34453;52.198;5.004;2022-09-03T11:16:14;0.95;;;0.80;;
48667;SDS011;34453;52.198;5.004;2022-09-03T11:21:15;3.20;;;0.95;;
48667;SDS011;34453;52.198;5.004;2022-09-03T11:23:50;8.88;;;0.70;;
48667;SDS011;34453;52.198;5.004;2022-09-03T11:26:31;4.35;;;1.00;;
48667;SDS011;34453;52.198;5.004;2022-09-03T11:40:12;8.23;;;1.17;;
48667;SDS011;34453;52.198;5.004;2022-09-03T11:42:45;1.50;;;0.80;;
48667;SDS011;34453;52.198;5.004;2022-09-03T11:50:58;1.95;;;0.80;;
48667;SDS011;34453;52.198;5.004;2022-09-03T11:53:31;2.83;;;0.90;;
48667;SDS011;34453;52.198;5.004;2022-09-03T11:55:59;0.70;;;0.70;;
48667;SDS011;34453;52.198;5.004;2022-09-03T11:58:31;4.82;;;1.02;;
48667;SDS011;34453;52.198;5.004;2022-09-03T12:01:00;1.45;;;0.80;;
48667;SDS011;34453;52.198;5.004;2022-09-03T12:03:29;3.33;;;0.70;;
48667;SDS011;34453;52.198;5.004;2022-09-03T12:20:43;0.90;;;0.90;;
48667;SDS011;34453;52.198;5.004;2022-09-03T12:23:13;1.40;;;1.08;;
48667;SDS011;34453;52.198;5.004;2022-09-03T12:25:51;1.65;;;0.60;;
48667;SDS011;34453;52.198;5.004;2022-09-03T12:28:18;2.50;;;1.00;;
48667;SDS011;34453;52.198;5.004;2022-09-03T12:30:47;2.08;;;0.80;;
48667;SDS011;34453;52.198;5.004;2022-09-03T12:33:17;1.92;;;1.13;;
48667;SDS011;34453;52.198;5.004;2022-09-03T12:35:57;0.75;;;0.75;;
48667;SDS011;34453;52.198;5.004;2022-09-03T12:38:24;3.40;;;1.38;;
48667;SDS011;34453;52.198;5.004;2022-09-03T12:40:50;1.63;;;1.52;;
48667;SDS011;34453;52.198;5.004;2022-09-03T12:43:16;2.22;;;0.73;;
48667;SDS011;34453;52.198;5.004;2022-09-03T12:45:43;1.25;;;0.85;;
48667;SDS011;34453;52.198;5.004;2022-09-03T12:48:11;0.85;;;0.85;;
48667;SDS011;34453;52.198;5.004;2022-09-03T12:50:40;0.82;;;0.80;;
48667;SDS011;34453;52.198;5.004;2022-09-03T12:53:06;3.55;;;0.70;;
48667;SDS011;34453;52.198;5.004;2022-09-03T12:58:08;0.75;;;0.73;;
48667;SDS011;34453;52.198;5.004;2022-09-03T13:03:27;0.55;;;0.55;;
48667;SDS011;34453;52.198;5.004;2022-09-03T13:06:20;0.80;;;0.75;;
48667;SDS011;34453;52.198;5.004;2022-09-03T13:08:49;0.75;;;0.75;;
48667;SDS011;34453;52.198;5.004;2022-09-03T13:11:22;5.07;;;0.73;;
48667;SDS011;34453;52.198;5.004;2022-09-03T13:14:03;1.67;;;1.15;;
48667;SDS011;34453;52.198;5.004;2022-09-03T13:19:35;2.63;;;0.90;;
48667;SDS011;34453;52.198;5.004;2022-09-03T13:25:23;1.23;;;0.90;;
48667;SDS011;34453;52.198;5.004;2022-09-03T13:33:57;1.05;;;1.05;;
48667;SDS011;34453;52.198;5.004;2022-09-03T13:39:24;0.80;;;0.80;;
48667;SDS011;34453;52.198;5.004;2022-09-03T13:42:12;0.63;;;0.63;;
48667;SDS011;34453;52.198;5.004;2022-09-03T13:44:55;1.35;;;0.80;;
48667;SDS011;34453;52.198;5.004;2022-09-03T13:47:55;2.08;;;0.70;;
48667;SDS011;34453;52.198;5.004;2022-09-03T13:56:28;7.70;;;0.80;;
48667;SDS011;34453;52.198;5.004;2022-09-03T14:04:21;0.75;;;0.75;;
48667;SDS011;34453;52.198;5.004;2022-09-03T14:07:15;0.80;;;0.80;;
48667;SDS011;34453;52.198;5.004;2022-09-03T14:15:05;4.60;;;0.90;;
48667;SDS011;34453;52.198;5.004;2022-09-03T14:20:52;3.08;;;0.50;;
48667;SDS011;34453;52.198;5.004;2022-09-03T14:23:30;1.00;;;0.75;;
48667;SDS011;34453;52.198;5.004;2022-09-03T14:26:26;3.88;;;0.73;;
48667;SDS011;34453;52.198;5.004;2022-09-03T14:28:58;2.50;;;1.00;;
48667;SDS011;34453;52.198;5.004;2022-09-03T14:34:36;6.07;;;1.00;;
48667;SDS011;34453;52.198;5.004;2022-09-03T14:48:41;2.70;;;0.90;;
48667;SDS011;34453;52.198;5.004;2022-09-03T15:34:34;1.10;;;0.98;;
48667;SDS011;34453;52.198;5.004;2022-09-03T15:37:22;2.53;;;0.93;;
48667;SDS011;34453;52.198;5.004;2022-09-03T15:39:57;3.05;;;0.98;;
48667;SDS011;34453;52.198;5.004;2022-09-03T15:42:40;2.55;;;0.80;;
48667;SDS011;34453;52.198;5.004;2022-09-03T15:45:50;1.83;;;0.88;;
48667;SDS011;34453;52.198;5.004;2022-09-03T15:48:47;0.95;;;0.95;;
48667;SDS011;34453;52.198;5.004;2022-09-03T15:51:32;0.95;;;0.82;;
48667;SDS011;34453;52.198;5.004;2022-09-03T15:54:01;2.67;;;0.90;;
48667;SDS011;34453;52.198;5.004;2022-09-03T15:56:53;3.10;;;0.90;;
48667;SDS011;34453;52.198;5.004;2022-09-03T16:08:27;2.90;;;1.10;;
48667;SDS011;34453;52.198;5.004;2022-09-03T16:11:33;2.20;;;1.02;;
48667;SDS011;34453;52.198;5.004;2022-09-03T16:19:16;6.00;;;1.70;;
48667;SDS011;34453;52.198;5.004;2022-09-03T16:24:26;0.85;;;0.80;;
48667;SDS011;34453;52.198;5.004;2022-09-03T16:27:06;3.40;;;0.70;;
48667;SDS011;34453;52.198;5.004;2022-09-03T16:29:40;3.00;;;1.05;;
48667;SDS011;34453;52.198;5.004;2022-09-03T16:32:09;3.42;;;0.80;;
48667;SDS011;34453;52.198;5.004;2022-09-03T16:40:13;3.85;;;1.00;;
48667;SDS011;34453;52.198;5.004;2022-09-03T16:51:18;3.38;;;1.17;;
48667;SDS011;34453;52.198;5.004;2022-09-03T16:57:05;1.10;;;1.10;;
48667;SDS011;34453;52.198;5.004;2022-09-03T16:59:46;5.88;;;1.10;;
48667;SDS011;34453;52.198;5.004;2022-09-03T17:02:40;3.70;;;1.30;;
48667;SDS011;34453;52.198;5.004;2022-09-03T17:24:08;5.03;;;1.73;;
48667;SDS011;34453;52.198;5.004;2022-09-03T17:27:20;1.00;;;1.00;;
48667;SDS011;34453;52.198;5.004;2022-09-03T17:36:13;3.42;;;1.20;;
48667;SDS011;34453;52.198;5.004;2022-09-03T17:41:50;1.42;;;1.13;;
48667;SDS011;34453;52.198;5.004;2022-09-03T17:44:44;2.50;;;1.15;;
48667;SDS011;34453;52.198;5.004;2022-09-03T17:47:34;6.38;;;0.85;;
48667;SDS011;34453;52.198;5.004;2022-09-03T17:50:25;2.47;;;0.85;;
48667;SDS011;34453;52.198;5.004;2022-09-03T17:53:00;3.80;;;0.90;;
48667;SDS011;34453;52.198;5.004;2022-09-03T17:55:35;0.85;;;0.80;;
48667;SDS011;34453;52.198;5.004;2022-09-03T18:01:26;1.90;;;1.13;;
48667;SDS011;34453;52.198;5.004;2022-09-03T18:03:41;5.05;;;1.40;;
48667;SDS011;34453;52.198;5.004;2022-09-03T18:06:35;1.35;;;1.25;;
48667;SDS011;34453;52.198;5.004;2022-09-03T18:11:45;2.22;;;1.00;;
48667;SDS011;34453;52.198;5.004;2022-09-03T18:16:53;3.75;;;1.23;;
48667;SDS011;34453;52.198;5.004;2022-09-03T18:19:38;1.63;;;1.50;;
48667;SDS011;34453;52.198;5.004;2022-09-03T18:22:45;1.92;;;1.25;;
48667;SDS011;34453;52.198;5.004;2022-09-03T18:25:30;1.40;;;1.30;;
48667;SDS011;34453;52.198;5.004;2022-09-03T18:28:18;5.70;;;1.30;;
48667;SDS011;34453;52.198;5.004;2022-09-03T18:31:10;3.03;;;1.70;;
48667;SDS011;34453;52.198;5.004;2022-09-03T18:33:56;4.82;;;1.55;;
48667;SDS011;34453;52.198;5.004;2022-09-03T18:36:40;1.52;;;1.35;;
48667;SDS011;34453;52.198;5.004;2022-09-03T18:39:27;4.88;;;2.65;;
48667;SDS011;34453;52.198;5.004;2022-09-03T18:42:34;3.60;;;2.78;;
48667;SDS011;34453;52.198;5.004;2022-09-03T18:48:58;10.07;;;1.90;;
48667;SDS011;34453;52.198;5.004;2022-09-03T18:52:10;2.92;;;1.35;;
48667;SDS011;34453;52.198;5.004;2022-09-03T18:55:37;4.90;;;1.40;;
48667;SDS011;34453;52.198;5.004;2022-09-03T19:01:38;3.33;;;1.20;;
48667;SDS011;34453;52.198;5.004;2022-09-03T19:07:52;5.20;;;1.88;;
48667;SDS011;34453;52.198;5.004;2022-09-03T19:14:01;3.85;;;1.80;;
48667;SDS011;34453;52.198;5.004;2022-09-03T19:19:55;2.35;;;2.10;;
48667;SDS011;34453;52.198;5.004;2022-09-03T19:22:47;4.72;;;1.83;;
48667;SDS011;34453;52.198;5.004;2022-09-03T19:25:31;4.95;;;1.70;;
48667;SDS011;34453;52.198;5.004;2022-09-03T19:28:17;1.92;;;1.75;;
48667;SDS011;34453;52.198;5.004;2022-09-03T19:34:11;2.45;;;2.35;;
48667;SDS011;34453;52.198;5.004;2022-09-03T19:37:22;2.63;;;2.40;;
48667;SDS011;34453;52.198;5.004;2022-09-03T19:46:59;3.00;;;2.08;;
48667;SDS011;34453;52.198;5.004;2022-09-03T19:53:02;1.80;;;1.70;;
48667;SDS011;34453;52.198;5.004;2022-09-03T19:55:53;2.55;;;2.40;;
48667;SDS011;34453;52.198;5.004;2022-09-03T19:58:45;3.78;;;3.50;;
48667;SDS011;34453;52.198;5.004;2022-09-03T20:01:35;2.70;;;2.50;;
48667;SDS011;34453;52.198;5.004;2022-09-03T20:04:29;4.05;;;2.53;;
48667;SDS011;34453;52.198;5.004;2022-09-03T20:07:36;5.57;;;2.53;;
48667;SDS011;34453;52.198;5.004;2022-09-03T20:10:21;8.43;;;4.47;;
48667;SDS011;34453;52.198;5.004;2022-09-03T20:15:24;2.90;;;2.60;;
48667;SDS011;34453;52.198;5.004;2022-09-03T20:18:02;3.78;;;2.42;;
48667;SDS011;34453;52.198;5.004;2022-09-03T20:23:49;8.50;;;3.00;;
48667;SDS011;34453;52.198;5.004;2022-09-03T20:26:29;2.53;;;2.42;;
48667;SDS011;34453;52.198;5.004;2022-09-03T20:35:35;2.50;;;2.30;;
48667;SDS011;34453;52.198;5.004;2022-09-03T20:38:35;3.00;;;2.42;;
48667;SDS011;34453;52.198;5.004;2022-09-03T20:49:56;5.88;;;1.73;;
48667;SDS011;34453;52.198;5.004;2022-09-03T20:55:42;4.32;;;1.98;;
48667;SDS011;34453;52.198;5.004;2022-09-03T21:00:42;4.00;;;2.42;;
48667;SDS011;34453;52.198;5.004;2022-09-03T21:03:25;5.47;;;2.67;;
48667;SDS011;34453;52.198;5.004;2022-09-03T21:06:17;6.18;;;2.08;;
48667;SDS011;34453;52.198;5.004;2022-09-03T21:11:34;2.35;;;2.10;;
48667;SDS011;34453;52.198;5.004;2022-09-03T21:17:07;4.80;;;4.43;;
48667;SDS011;34453;52.198;5.004;2022-09-03T21:20:31;3.33;;;3.10;;
48667;SDS011;34453;52.198;5.004;2022-09-03T21:28:38;4.30;;;3.92;;
48667;SDS011;34453;52.198;5.004;2022-09-03T21:34:29;5.57;;;4.28;;
48667;SDS011;34453;52.198;5.004;2022-09-03T21:36:54;7.00;;;3.35;;
48667;SDS011;34453;52.198;5.004;2022-09-03T21:39:31;4.35;;;3.25;;
48667;SDS011;34453;52.198;5.004;2022-09-03T21:42:15;6.80;;;3.38;;